createdAt,value
2018-11-10T00:01:03.602Z,57.57
2018-11-10T00:03:31.794Z,66.73
2018-11-10T00:06:00.214Z,64.90
2018-11-10T00:08:28.752Z,66.17
2018-11-10T00:10:56.835Z,62.40
2018-11-10T00:13:25.235Z,61.60
2018-11-10T00:15:53.416Z,57.00
2018-11-10T00:18:21.835Z,65.47
2018-11-10T00:20:50.042Z,63.90
2018-11-10T00:23:18.246Z,55.37
2018-11-10T00:25:46.425Z,64.50
2018-11-10T00:28:14.651Z,62.37
2018-11-10T00:30:43.054Z,60.23
2018-11-10T00:33:11.260Z,61.03
2018-11-10T00:35:39.449Z,54.53
2018-11-10T00:38:07.637Z,55.97
2018-11-10T00:40:35.833Z,59.40
2018-11-10T00:43:04.277Z,55.57
2018-11-10T00:45:32.465Z,75.20
2018-11-10T00:48:01.133Z,64.10
2018-11-10T00:50:29.333Z,67.13
2018-11-10T00:52:57.531Z,68.93
2018-11-10T00:55:25.727Z,67.13
2018-11-10T00:57:53.939Z,68.17
2018-11-10T01:00:22.134Z,58.07
2018-11-10T01:02:50.371Z,67.30
2018-11-10T01:05:18.579Z,69.43
2018-11-10T01:07:46.795Z,60.50
2018-11-10T01:10:14.983Z,64.10
2018-11-10T01:12:43.239Z,60.87
2018-11-10T01:15:12.987Z,65.90
2018-11-10T01:17:41.940Z,63.93
2018-11-10T01:20:11.091Z,59.10
2018-11-10T01:22:39.384Z,65.53
2018-11-10T01:25:09.083Z,66.10
2018-11-10T01:27:37.289Z,61.97
2018-11-10T01:30:08.304Z,67.17
2018-11-10T01:32:36.492Z,58.23
2018-11-10T01:35:04.907Z,60.13
2018-11-10T01:37:33.088Z,63.90
2018-11-10T01:40:01.287Z,66.23
2018-11-10T01:42:29.997Z,66.50
2018-11-10T01:44:58.187Z,59.93
2018-11-10T01:47:26.414Z,55.40
2018-11-10T01:49:54.607Z,61.60
2018-11-10T01:52:22.798Z,57.03
2018-11-10T01:54:50.986Z,66.50
2018-11-10T01:57:19.171Z,65.70
2018-11-10T01:59:47.367Z,56.20
2018-11-10T02:02:15.550Z,66.80
2018-11-10T02:04:43.744Z,71.60
2018-11-10T02:07:11.939Z,62.93
2018-11-10T02:09:40.126Z,60.37
2018-11-10T02:12:08.315Z,54.10
2018-11-10T02:14:36.735Z,60.47
2018-11-10T02:17:04.938Z,60.37
2018-11-10T02:19:33.162Z,64.80
2018-11-10T02:22:01.588Z,63.33
2018-11-10T02:24:29.791Z,56.40
2018-11-10T02:26:57.973Z,61.73
2018-11-10T02:29:26.175Z,68.50
2018-11-10T02:31:54.347Z,65.60
2018-11-10T02:34:22.758Z,63.57
2018-11-10T02:36:51.203Z,64.43
2018-11-10T02:39:19.402Z,68.57
2018-11-10T02:41:47.815Z,75.13
2018-11-10T02:44:16.006Z,60.97
2018-11-10T02:46:44.195Z,69.13
2018-11-10T02:49:13.307Z,77.23
2018-11-10T02:51:41.711Z,72.20
2018-11-10T02:54:09.908Z,68.23
2018-11-10T02:56:38.107Z,69.33
2018-11-10T02:59:06.304Z,72.00
2018-11-10T03:01:34.958Z,65.93
2018-11-10T03:04:03.154Z,70.97
2018-11-10T03:06:31.335Z,80.00
2018-11-10T03:08:59.530Z,69.47
2018-11-10T03:11:28.459Z,63.30
2018-11-10T03:13:56.659Z,72.27
2018-11-10T03:16:25.138Z,74.00
2018-11-10T03:18:53.282Z,76.83
2018-11-10T03:21:21.479Z,69.00
2018-11-10T03:23:49.678Z,74.67
2018-11-10T03:26:17.899Z,73.97
2018-11-10T03:28:46.101Z,72.30
2018-11-10T03:31:14.315Z,68.53
2018-11-10T03:33:42.562Z,68.20
2018-11-10T03:36:10.779Z,68.20
2018-11-10T03:38:39.207Z,68.60
2018-11-10T03:41:07.635Z,66.73
2018-11-10T03:43:36.287Z,79.23
2018-11-10T03:46:04.827Z,72.00
2018-11-10T03:48:33.082Z,66.30
2018-11-10T03:51:01.291Z,68.07
2018-11-10T03:53:29.507Z,68.50
2018-11-10T03:55:57.726Z,75.00
2018-11-10T03:58:25.933Z,76.17
2018-11-10T04:00:54.144Z,74.10
2018-11-10T04:03:22.338Z,75.23
2018-11-10T04:05:50.779Z,78.33
2018-11-10T04:08:18.974Z,78.20
2018-11-10T04:10:47.612Z,74.10
2018-11-10T04:13:16.042Z,78.07
2018-11-10T04:15:44.251Z,78.57
2018-11-10T04:18:12.907Z,72.50
2018-11-10T04:20:41.335Z,82.60
2018-11-10T04:23:09.760Z,82.63
2018-11-10T04:25:38.183Z,83.10
2018-11-10T04:28:06.611Z,80.57
2018-11-10T04:30:34.825Z,81.80
2018-11-10T04:33:03.022Z,82.40
2018-11-10T04:35:31.464Z,81.40
2018-11-10T04:37:59.667Z,87.27
2018-11-10T04:40:27.880Z,81.33
2018-11-10T04:42:56.315Z,83.47
2018-11-10T04:45:24.766Z,75.40
2018-11-10T04:47:53.200Z,81.67
2018-11-10T04:50:21.463Z,91.33
2018-11-10T04:52:49.663Z,76.63
2018-11-10T04:55:17.859Z,76.20
2018-11-10T04:57:46.066Z,75.83
2018-11-10T05:00:15.491Z,80.57
2018-11-10T05:02:44.694Z,86.20
2018-11-10T05:05:12.900Z,75.97
2018-11-10T05:07:41.107Z,81.23
2018-11-10T05:10:10.330Z,79.77
2018-11-10T05:12:38.586Z,80.57
2018-11-10T05:15:07.573Z,77.73
2018-11-10T05:17:35.985Z,81.20
2018-11-10T05:20:04.836Z,76.30
2018-11-10T05:22:33.027Z,77.83
2018-11-10T05:25:01.199Z,84.57
2018-11-10T05:27:29.422Z,83.80
2018-11-10T05:29:57.791Z,79.07
2018-11-10T05:32:25.968Z,85.73
2018-11-10T05:34:54.151Z,85.37
2018-11-10T05:37:22.343Z,81.13
2018-11-10T05:39:50.523Z,82.60
2018-11-10T05:42:18.718Z,88.87
2018-11-10T05:44:46.904Z,86.63
2018-11-10T05:47:15.103Z,91.47
2018-11-10T05:49:43.279Z,93.23
2018-11-10T05:52:11.694Z,96.23
2018-11-10T05:54:40.067Z,87.00
2018-11-10T05:57:08.295Z,81.53
2018-11-10T05:59:36.656Z,95.03
2018-11-10T06:02:05.002Z,72.33
2018-11-10T06:04:33.435Z,71.27
2018-11-10T06:07:01.621Z,80.17
2018-11-10T06:09:30.095Z,88.20
2018-11-10T06:11:58.274Z,81.83
2018-11-10T06:14:26.475Z,82.37
2018-11-10T06:16:54.683Z,87.00
2018-11-10T06:19:23.114Z,94.13
2018-11-10T06:21:51.330Z,91.00
2018-11-10T06:24:19.530Z,84.50
2018-11-10T06:26:47.753Z,98.10
2018-11-10T06:29:15.960Z,92.37
2018-11-10T06:31:44.183Z,91.00
2018-11-10T06:34:12.394Z,93.47
2018-11-10T06:36:40.812Z,102.30
2018-11-10T06:39:10.087Z,91.07
2018-11-10T06:41:38.287Z,91.73
2018-11-10T06:44:06.526Z,101.10
2018-11-10T06:46:34.756Z,109.87
2018-11-10T06:49:02.962Z,87.47
2018-11-10T06:51:31.377Z,91.97
2018-11-10T06:53:59.567Z,96.43
2018-11-10T06:56:27.977Z,103.30
2018-11-10T06:58:56.303Z,93.23
2018-11-10T07:01:24.527Z,86.33
2018-11-10T07:03:53.015Z,89.20
2018-11-10T07:06:21.234Z,85.63
2018-11-10T07:08:49.459Z,73.93
2018-11-10T07:11:17.656Z,75.33
2018-11-10T07:13:45.880Z,83.10
2018-11-10T07:16:14.087Z,86.30
2018-11-10T07:18:42.723Z,84.67
2018-11-10T07:21:11.073Z,95.33
2018-11-10T07:23:39.402Z,90.90
2018-11-10T07:26:07.811Z,86.17
2018-11-10T07:28:36.200Z,80.13
2018-11-10T07:31:04.432Z,73.70
2018-11-10T07:33:32.644Z,76.40
2018-11-10T07:36:00.839Z,110.80
2018-11-10T07:38:29.053Z,83.20
2018-11-10T07:40:57.282Z,76.50
2018-11-10T07:43:25.501Z,77.57
2018-11-10T07:45:53.762Z,71.63
2018-11-10T07:48:21.963Z,78.67
2018-11-10T07:50:50.166Z,69.40
2018-11-10T07:53:18.406Z,71.47
2018-11-10T07:55:47.461Z,81.20
2018-11-10T07:58:15.663Z,68.33
2018-11-10T08:00:43.859Z,79.97
2018-11-10T08:03:12.094Z,72.57
2018-11-10T08:05:40.287Z,74.40
2018-11-10T08:08:08.727Z,61.23
2018-11-10T08:10:36.927Z,75.03
2018-11-10T08:13:05.395Z,81.40
2018-11-10T08:15:33.594Z,66.83
2018-11-10T08:18:01.803Z,62.53
2018-11-10T08:20:30.013Z,71.70
2018-11-10T08:22:58.270Z,72.37
2018-11-10T08:25:26.487Z,62.30
2018-11-10T08:27:54.695Z,65.70
2018-11-10T08:30:22.898Z,61.97
2018-11-10T08:32:51.111Z,59.40
2018-11-10T08:35:19.318Z,60.63
2018-11-10T08:37:47.519Z,61.77
2018-11-10T08:40:16.851Z,60.27
2018-11-10T08:42:45.107Z,54.70
2018-11-10T08:45:14.295Z,64.90
2018-11-10T08:47:43.268Z,59.53
2018-11-10T08:50:13.198Z,61.03
2018-11-10T08:52:41.999Z,57.20
2018-11-10T08:55:11.712Z,62.03
2018-11-10T08:57:40.350Z,75.43
2018-11-10T09:00:09.972Z,58.37
2018-11-10T09:02:39.070Z,65.43
2018-11-10T09:05:08.391Z,58.83
2018-11-10T09:07:36.578Z,54.23
2018-11-10T09:10:05.969Z,60.90
2018-11-10T09:12:34.138Z,63.47
2018-11-10T09:15:02.403Z,62.70
2018-11-10T09:17:30.533Z,54.93
2018-11-10T09:19:59.354Z,56.90
2018-11-10T09:22:27.530Z,61.27
2018-11-10T09:24:55.737Z,61.83
2018-11-10T09:27:23.926Z,58.57
2018-11-10T09:29:52.223Z,66.63
2018-11-10T09:32:20.625Z,56.17
2018-11-10T09:34:48.815Z,54.60
2018-11-10T09:37:17.011Z,50.97
2018-11-10T09:39:45.219Z,54.47
2018-11-10T09:42:13.505Z,70.10
2018-11-10T09:44:41.562Z,68.17
2018-11-10T09:47:09.754Z,59.77
2018-11-10T09:49:37.974Z,66.50
2018-11-10T09:52:06.165Z,58.57
2018-11-10T09:54:34.356Z,59.83
2018-11-10T09:57:02.540Z,50.60
2018-11-10T09:59:30.995Z,116.50
2018-11-10T10:01:59.843Z,53.20
2018-11-10T10:04:27.716Z,54.27
2018-11-10T10:06:55.888Z,53.33
2018-11-10T10:09:24.523Z,56.70
2018-11-10T10:11:52.946Z,54.07
2018-11-10T10:14:21.362Z,56.07
2018-11-10T10:16:50.346Z,61.77
2018-11-10T10:19:18.711Z,54.43
2018-11-10T10:21:48.013Z,48.50
2018-11-10T10:24:16.356Z,53.33
2018-11-10T10:26:44.772Z,47.37
2018-11-10T10:29:12.988Z,49.63
2018-11-10T10:31:41.199Z,49.07
2018-11-10T10:34:09.540Z,55.07
2018-11-10T10:36:37.564Z,56.83
2018-11-10T10:39:07.392Z,76.93
2018-11-10T10:41:35.746Z,54.43
2018-11-10T10:44:05.059Z,45.90
2018-11-10T10:46:33.460Z,47.20
2018-11-10T10:49:01.983Z,47.20
2018-11-10T10:51:30.088Z,43.40
2018-11-10T10:53:58.274Z,51.73
2018-11-10T10:56:26.477Z,46.73
2018-11-10T10:58:54.635Z,44.73
2018-11-10T11:01:28.215Z,45.53
2018-11-10T11:04:04.635Z,54.00
2018-11-10T11:06:33.094Z,53.73
2018-11-10T11:09:02.093Z,48.57
2018-11-10T11:11:30.483Z,41.87
2018-11-10T11:13:58.912Z,44.23
2018-11-10T11:16:27.121Z,43.77
2018-11-10T11:18:55.350Z,41.27
2018-11-10T11:21:23.546Z,42.17
2018-11-10T11:23:51.972Z,46.17
2018-11-10T11:26:20.176Z,44.60
2018-11-10T11:28:48.375Z,38.37
2018-11-10T11:31:16.593Z,35.90
2018-11-10T11:33:44.847Z,40.17
2018-11-10T11:36:13.068Z,39.17
2018-11-10T11:38:41.282Z,33.97
2018-11-10T11:41:09.795Z,39.33
2018-11-10T11:43:37.923Z,35.30
2018-11-10T11:46:06.171Z,34.53
2018-11-10T11:48:34.370Z,36.53
2018-11-10T11:51:02.583Z,38.20
2018-11-10T11:53:30.788Z,35.63
2018-11-10T11:55:59.154Z,41.33
2018-11-10T11:58:27.513Z,39.20
2018-11-10T12:00:55.843Z,38.30
2018-11-10T12:03:24.047Z,38.53
2018-11-10T12:05:52.470Z,39.60
2018-11-10T12:08:20.687Z,32.53
2018-11-10T12:10:48.878Z,34.33
2018-11-10T12:13:17.111Z,35.50
2018-11-10T12:15:45.316Z,33.90
2018-11-10T12:18:13.719Z,36.33
2018-11-10T12:20:42.201Z,37.10
2018-11-10T12:23:10.319Z,36.07
2018-11-10T12:25:38.507Z,34.67
2018-11-10T12:28:06.698Z,39.13
2018-11-10T12:30:34.883Z,36.40
2018-11-10T12:33:03.074Z,31.20
2018-11-10T12:35:31.259Z,30.90
2018-11-10T12:37:59.449Z,32.70
2018-11-10T12:40:27.639Z,31.73
2018-11-10T12:42:56.063Z,33.40
2018-11-10T12:45:24.247Z,38.17
2018-11-10T12:47:52.444Z,33.30
2018-11-10T12:50:20.623Z,30.17
2018-11-10T12:52:49.045Z,34.20
2018-11-10T12:55:17.277Z,36.90
2018-11-10T12:57:46.460Z,29.37
2018-11-10T13:00:16.037Z,35.47
2018-11-10T13:02:44.859Z,30.40
2018-11-10T13:05:13.676Z,26.83
2018-11-10T13:07:43.658Z,30.30
2018-11-10T13:10:12.231Z,30.53
2018-11-10T13:12:41.028Z,33.07
2018-11-10T13:15:09.647Z,38.67
2018-11-10T13:17:38.191Z,33.80
2018-11-10T13:20:09.176Z,30.90
2018-11-10T13:22:37.387Z,26.93
2018-11-10T13:25:06.804Z,32.57
2018-11-10T13:27:35.155Z,32.87
2018-11-10T13:30:03.619Z,32.70
2018-11-10T13:32:31.849Z,91.40
2018-11-10T13:35:00.083Z,38.90
2018-11-10T13:37:28.514Z,39.70
2018-11-10T13:39:56.950Z,34.00
2018-11-10T13:42:25.231Z,34.57
2018-11-10T13:44:53.435Z,33.67
2018-11-10T13:47:21.648Z,37.70
2018-11-10T13:49:49.860Z,31.57
2018-11-10T13:52:18.735Z,28.77
2018-11-10T13:54:46.822Z,28.20
2018-11-10T13:57:15.043Z,27.33
2018-11-10T13:59:43.259Z,33.50
2018-11-10T14:02:11.466Z,28.97
2018-11-10T14:04:39.663Z,29.20
2018-11-10T14:07:07.883Z,32.27
2018-11-10T14:09:36.092Z,31.10
2018-11-10T14:12:04.508Z,36.77
2018-11-10T14:14:32.703Z,28.60
2018-11-10T14:17:00.891Z,32.03
2018-11-10T14:19:29.080Z,33.60
2018-11-10T14:21:57.263Z,33.27
2018-11-10T14:24:25.703Z,34.13
2018-11-10T14:26:53.886Z,29.57
2018-11-10T14:29:22.694Z,35.33
2018-11-10T14:31:50.891Z,29.67
2018-11-10T14:34:19.068Z,32.77
2018-11-10T14:36:47.254Z,40.60
2018-11-10T14:39:15.435Z,33.33
2018-11-10T14:41:43.839Z,37.60
2018-11-10T14:44:12.144Z,32.63
2018-11-10T14:46:40.759Z,62.83
2018-11-10T14:49:09.015Z,43.67
2018-11-10T14:51:37.193Z,39.77
2018-11-10T14:54:05.470Z,31.43
2018-11-10T14:56:34.270Z,62.73
2018-11-10T14:59:02.575Z,32.00
2018-11-10T15:01:31.443Z,49.53
2018-11-10T15:03:59.631Z,102.40
2018-11-10T15:06:27.798Z,34.57
2018-11-10T15:08:55.986Z,43.53
2018-11-10T15:11:24.203Z,38.40
2018-11-10T15:13:52.359Z,46.07
2018-11-10T15:16:20.970Z,48.60
2018-11-10T15:18:49.220Z,72.37
2018-11-10T15:21:17.644Z,53.13
2018-11-10T15:23:45.879Z,51.77
2018-11-10T15:26:14.279Z,35.67
2018-11-10T15:28:42.459Z,39.00
2018-11-10T15:31:10.703Z,37.80
2018-11-10T15:33:38.879Z,33.60
2018-11-10T15:36:07.079Z,70.80
2018-11-10T15:38:35.267Z,53.43
2018-11-10T15:41:03.667Z,39.70
2018-11-10T15:43:31.863Z,42.13
2018-11-10T15:46:00.235Z,47.63
2018-11-10T15:48:28.438Z,45.23
2018-11-10T15:50:56.687Z,48.73
2018-11-10T15:53:24.916Z,57.07
2018-11-10T15:55:53.107Z,49.63
2018-11-10T15:58:21.511Z,50.67
2018-11-10T16:00:49.702Z,40.20
2018-11-10T16:03:17.911Z,40.67
2018-11-10T16:05:46.171Z,41.73
2018-11-10T16:08:14.391Z,39.27
2018-11-10T16:10:42.645Z,42.03
2018-11-10T16:13:10.850Z,43.37
2018-11-10T16:15:39.062Z,48.97
2018-11-10T16:18:07.354Z,48.43
2018-11-10T16:20:35.566Z,43.87
2018-11-10T16:23:03.823Z,45.57
2018-11-10T16:25:32.039Z,37.23
2018-11-10T16:28:00.254Z,38.50
2018-11-10T16:30:28.487Z,48.40
2018-11-10T16:32:56.724Z,42.40
2018-11-10T16:35:24.931Z,34.50
2018-11-10T16:37:53.130Z,37.40
2018-11-10T16:40:21.366Z,40.13
2018-11-10T16:42:50.072Z,37.73
2018-11-10T16:45:20.009Z,37.93
2018-11-10T16:47:48.218Z,38.07
2018-11-10T16:50:16.444Z,44.10
2018-11-10T16:52:45.419Z,39.77
2018-11-10T16:55:13.715Z,31.10
2018-11-10T16:57:41.877Z,39.47
2018-11-10T17:00:12.280Z,39.87
2018-11-10T17:02:40.516Z,45.53
2018-11-10T17:05:09.071Z,56.20
2018-11-10T17:07:37.381Z,102.90
2018-11-10T17:10:07.763Z,59.53
2018-11-10T17:12:35.944Z,43.50
2018-11-10T17:15:04.149Z,35.33
2018-11-10T17:17:32.316Z,42.43
2018-11-10T17:20:00.954Z,45.17
2018-11-10T17:22:29.207Z,40.77
2018-11-10T17:24:57.314Z,42.93
2018-11-10T17:27:25.512Z,42.07
2018-11-10T17:29:53.776Z,45.93
2018-11-10T17:32:22.103Z,41.57
2018-11-10T17:34:50.303Z,45.33
2018-11-10T17:37:18.927Z,46.80
2018-11-10T17:39:47.327Z,41.60
2018-11-10T17:42:15.371Z,51.57
2018-11-10T17:44:43.979Z,75.80
2018-11-10T17:47:12.191Z,52.03
2018-11-10T17:49:40.597Z,39.83
2018-11-10T17:52:08.815Z,43.00
2018-11-10T17:54:37.069Z,36.03
2018-11-10T17:57:05.379Z,43.17
2018-11-10T17:59:33.786Z,44.77
2018-11-10T18:02:02.049Z,39.27
2018-11-10T18:04:30.187Z,44.63
2018-11-10T18:06:58.390Z,44.27
2018-11-10T18:09:26.578Z,48.37
2018-11-10T18:11:55.020Z,45.23
2018-11-10T18:14:23.223Z,48.57
2018-11-10T18:16:51.436Z,50.40
2018-11-10T18:19:19.607Z,51.87
2018-11-10T18:21:47.809Z,47.17
2018-11-10T18:24:15.994Z,42.67
2018-11-10T18:26:44.194Z,40.70
2018-11-10T18:29:12.814Z,41.53
2018-11-10T18:31:41.010Z,52.40
2018-11-10T18:34:09.555Z,45.47
2018-11-10T18:36:37.756Z,39.23
2018-11-10T18:39:07.988Z,50.80
2018-11-10T18:41:36.179Z,43.03
2018-11-10T18:44:04.386Z,43.13
2018-11-10T18:46:32.640Z,50.70
2018-11-10T18:49:00.774Z,39.67
2018-11-10T18:51:28.967Z,40.00
2018-11-10T18:53:57.411Z,48.77
2018-11-10T18:56:25.594Z,43.33
2018-11-10T18:58:53.795Z,36.13
2018-11-10T19:01:21.991Z,39.17
2018-11-10T19:03:50.395Z,47.13
2018-11-10T19:06:18.682Z,40.57
2018-11-10T19:08:46.758Z,48.43
2018-11-10T19:11:15.020Z,47.80
2018-11-10T19:13:43.195Z,43.17
2018-11-10T19:16:11.443Z,38.90
2018-11-10T19:18:39.665Z,47.03
2018-11-10T19:21:07.915Z,47.67
2018-11-10T19:23:36.092Z,51.20
2018-11-10T19:26:04.323Z,45.43
2018-11-10T19:28:32.537Z,44.47
2018-11-10T19:31:00.737Z,49.47
2018-11-10T19:33:29.367Z,45.63
2018-11-10T19:35:57.563Z,45.77
2018-11-10T19:38:26.373Z,51.80
2018-11-10T19:40:54.550Z,45.73
2018-11-10T19:43:22.734Z,45.77
2018-11-10T19:45:50.918Z,51.33
2018-11-10T19:48:19.099Z,47.23
2018-11-10T19:50:47.361Z,47.27
2018-11-10T19:53:15.475Z,47.77
2018-11-10T19:55:43.651Z,55.83
2018-11-10T19:58:12.050Z,45.03
2018-11-10T20:00:40.468Z,55.00
2018-11-10T20:03:08.620Z,52.93
2018-11-10T20:05:36.811Z,47.37
2018-11-10T20:08:05.367Z,52.97
2018-11-10T20:10:33.934Z,43.90
2018-11-10T20:13:02.189Z,45.50
2018-11-10T20:15:30.303Z,49.47
2018-11-10T20:17:58.819Z,44.40
2018-11-10T20:20:27.008Z,53.40
2018-11-10T20:22:55.406Z,43.97
2018-11-10T20:25:23.591Z,40.90
2018-11-10T20:27:51.779Z,45.37
2018-11-10T20:30:20.735Z,53.57
2018-11-10T20:32:49.365Z,46.10
2018-11-10T20:35:17.534Z,49.33
2018-11-10T20:37:46.396Z,42.50
2018-11-10T20:40:15.578Z,52.30
2018-11-10T20:42:43.891Z,80.37
2018-11-10T20:45:15.091Z,65.20
2018-11-10T20:47:43.738Z,49.53
2018-11-10T20:50:12.472Z,50.13
2018-11-10T20:52:40.665Z,50.77
2018-11-10T20:55:09.667Z,52.57
2018-11-10T20:57:38.550Z,46.53
2018-11-10T21:00:09.229Z,50.40
2018-11-10T21:02:37.449Z,47.80
2018-11-10T21:05:06.416Z,52.50
2018-11-10T21:07:34.651Z,44.23
2018-11-10T21:10:02.844Z,53.80
2018-11-10T21:12:31.224Z,55.60
2018-11-10T21:14:59.688Z,54.97
2018-11-10T21:17:27.891Z,53.90
2018-11-10T21:19:56.135Z,54.93
2018-11-10T21:22:24.322Z,47.43
2018-11-10T21:24:52.754Z,55.63
2018-11-10T21:27:21.198Z,52.93
2018-11-10T21:29:49.430Z,51.37
2018-11-10T21:32:18.279Z,50.80
2018-11-10T21:34:46.719Z,49.60
2018-11-10T21:37:15.155Z,56.80
2018-11-10T21:39:43.822Z,53.90
2018-11-10T21:42:12.259Z,54.20
2018-11-10T21:44:40.695Z,48.63
2018-11-10T21:47:08.899Z,52.90
2018-11-10T21:49:37.402Z,55.57
2018-11-10T21:52:05.631Z,56.30
2018-11-10T21:54:33.819Z,69.83
2018-11-10T21:57:02.019Z,54.37
2018-11-10T21:59:30.195Z,56.00
2018-11-10T22:01:58.390Z,55.40
2018-11-10T22:04:26.573Z,52.83
2018-11-10T22:06:54.988Z,54.40
2018-11-10T22:09:23.616Z,55.43
2018-11-10T22:11:51.603Z,58.73
2018-11-10T22:14:19.793Z,62.73
2018-11-10T22:16:47.987Z,58.67
2018-11-10T22:19:16.183Z,62.60
2018-11-10T22:21:44.366Z,63.23
2018-11-10T22:24:12.552Z,64.43
2018-11-10T22:26:40.744Z,116.83
2018-11-10T22:29:08.954Z,75.47
2018-11-10T22:31:37.148Z,66.53
2018-11-10T22:34:06.327Z,68.20
2018-11-10T22:36:34.631Z,63.50
2018-11-10T22:39:03.131Z,68.17
2018-11-10T22:41:31.754Z,69.13
2018-11-10T22:43:59.943Z,69.90
2018-11-10T22:46:28.131Z,73.13
2018-11-10T22:48:56.319Z,72.30
2018-11-10T22:51:24.506Z,68.73
2018-11-10T22:53:52.686Z,65.53
2018-11-10T22:56:20.851Z,61.80
2018-11-10T22:58:49.031Z,66.63
2018-11-10T23:01:17.215Z,68.43
2018-11-10T23:03:45.464Z,71.30
2018-11-10T23:06:13.579Z,66.73
2018-11-10T23:08:41.772Z,70.87
2018-11-10T23:11:09.989Z,63.40
2018-11-10T23:13:38.196Z,65.23
2018-11-10T23:16:06.407Z,67.83
2018-11-10T23:18:34.676Z,67.47
2018-11-10T23:21:02.881Z,76.20
2018-11-10T23:23:31.104Z,70.97
2018-11-10T23:25:59.550Z,74.17
2018-11-10T23:28:27.752Z,64.57
2018-11-10T23:30:55.953Z,74.07
2018-11-10T23:33:24.167Z,79.93
2018-11-10T23:35:52.363Z,73.73
2018-11-10T23:38:20.582Z,69.37
2018-11-10T23:40:49.001Z,69.77
2018-11-10T23:43:17.202Z,76.40
2018-11-10T23:45:45.606Z,66.80
2018-11-10T23:48:13.814Z,68.37
2018-11-10T23:50:42.023Z,66.50
2018-11-10T23:53:10.219Z,63.70
2018-11-10T23:55:38.418Z,70.60
2018-11-10T23:58:06.694Z,64.83
